createdAt,value
2018-09-26T00:00:14.925Z,2.30
2018-09-26T00:02:46.410Z,2.47
2018-09-26T00:05:15.166Z,2.20
2018-09-26T00:07:43.562Z,2.30
2018-09-26T00:10:11.926Z,2.93
2018-09-26T00:12:40.358Z,2.70
2018-09-26T00:15:08.722Z,3.00
2018-09-26T00:17:37.086Z,3.07
2018-09-26T00:20:05.471Z,2.80
2018-09-26T00:22:33.834Z,3.27
2018-09-26T00:25:02.218Z,2.60
2018-09-26T00:27:30.615Z,2.57
2018-09-26T00:29:59.005Z,2.17
2018-09-26T00:32:27.362Z,2.83
2018-09-26T00:34:55.746Z,3.50
2018-09-26T00:37:24.150Z,2.27
2018-09-26T00:39:52.529Z,2.70
2018-09-26T00:42:21.163Z,1.80
2018-09-26T00:44:49.586Z,2.57
2018-09-26T00:47:17.954Z,2.40
2018-09-26T00:49:45.473Z,2.30
2018-09-26T00:52:14.065Z,2.80
2018-09-26T00:54:42.445Z,2.33
2018-09-26T00:57:10.802Z,2.00
2018-09-26T00:59:39.190Z,2.10
2018-09-26T01:02:07.550Z,2.50
2018-09-26T01:04:35.953Z,2.43
2018-09-26T01:07:04.313Z,2.40
2018-09-26T01:09:32.697Z,2.67
2018-09-26T01:12:01.070Z,2.50
2018-09-26T01:14:29.454Z,3.20
2018-09-26T01:16:57.830Z,2.70
2018-09-26T01:19:26.225Z,2.60
2018-09-26T01:21:54.590Z,3.10
2018-09-26T01:24:23.010Z,3.03
2018-09-26T01:26:51.401Z,3.17
2018-09-26T01:29:19.782Z,2.60
2018-09-26T01:31:48.206Z,3.07
2018-09-26T01:34:16.554Z,2.93
2018-09-26T01:36:44.937Z,2.63
2018-09-26T01:39:13.313Z,3.17
2018-09-26T01:41:41.702Z,2.90
2018-09-26T01:44:10.069Z,3.67
2018-09-26T01:46:38.475Z,3.80
2018-09-26T01:49:06.866Z,2.43
2018-09-26T01:51:35.262Z,3.50
2018-09-26T01:54:03.630Z,3.43
2018-09-26T01:56:32.014Z,3.80
2018-09-26T01:59:00.378Z,2.83
2018-09-26T02:01:28.769Z,3.37
2018-09-26T02:03:57.137Z,3.60
2018-09-26T02:06:25.521Z,3.40
2018-09-26T02:08:53.886Z,3.20
2018-09-26T02:11:22.278Z,3.20
2018-09-26T02:13:50.645Z,3.37
2018-09-26T02:16:19.029Z,2.70
2018-09-26T02:18:47.756Z,3.23
2018-09-26T02:21:16.366Z,3.20
2018-09-26T02:23:44.807Z,3.17
2018-09-26T02:26:13.184Z,2.80
2018-09-26T02:28:41.554Z,3.30
2018-09-26T02:31:10.102Z,3.20
2018-09-26T02:33:38.474Z,3.40
2018-09-26T02:36:06.853Z,3.00
2018-09-26T02:38:35.218Z,2.53
2018-09-26T02:41:03.606Z,2.67
2018-09-26T02:43:31.972Z,2.30
2018-09-26T02:46:00.358Z,2.67
2018-09-26T02:48:34.117Z,2.90
2018-09-26T02:51:02.515Z,2.73
2018-09-26T02:53:30.909Z,2.50
2018-09-26T02:55:59.294Z,2.40
2018-09-26T02:58:27.666Z,2.47
2018-09-26T03:00:56.064Z,2.53
2018-09-26T03:03:24.430Z,1.90
2018-09-26T03:05:52.815Z,2.50
2018-09-26T03:08:21.174Z,1.90
2018-09-26T03:10:49.626Z,2.80
2018-09-26T03:13:17.978Z,2.53
2018-09-26T03:15:46.382Z,2.83
2018-09-26T03:18:14.907Z,2.90
2018-09-26T03:20:43.301Z,2.70
2018-09-26T03:23:11.658Z,2.30
2018-09-26T03:25:40.048Z,2.53
2018-09-26T03:28:08.437Z,2.20
2018-09-26T03:30:36.986Z,2.80
2018-09-26T03:33:05.382Z,2.70
2018-09-26T03:35:33.746Z,2.00
2018-09-26T03:38:02.138Z,2.30
2018-09-26T03:40:30.501Z,2.60
2018-09-26T03:42:58.877Z,1.87
2018-09-26T03:45:27.272Z,2.30
2018-09-26T03:47:55.662Z,2.17
2018-09-26T03:50:24.033Z,1.80
2018-09-26T03:52:52.414Z,2.10
2018-09-26T03:55:20.778Z,1.93
2018-09-26T03:57:49.173Z,2.70
2018-09-26T04:00:17.538Z,2.20
2018-09-26T04:02:45.970Z,2.10
2018-09-26T04:05:14.338Z,2.60
2018-09-26T04:07:42.942Z,2.57
2018-09-26T04:10:11.313Z,2.53
2018-09-26T04:12:39.772Z,2.20
2018-09-26T04:15:08.098Z,2.13
2018-09-26T04:17:36.503Z,2.10
2018-09-26T04:20:05.419Z,2.93
2018-09-26T04:22:33.806Z,2.77
2018-09-26T04:25:02.203Z,2.63
2018-09-26T04:27:30.707Z,2.40
2018-09-26T04:29:59.038Z,2.60
2018-09-26T04:32:27.461Z,1.90
2018-09-26T04:34:55.854Z,2.10
2018-09-26T04:37:24.254Z,2.30
2018-09-26T04:39:52.630Z,2.30
2018-09-26T04:42:21.017Z,2.67
2018-09-26T04:44:49.386Z,1.70
2018-09-26T04:47:17.774Z,1.70
2018-09-26T04:49:46.139Z,1.67
2018-09-26T04:52:14.528Z,1.80
2018-09-26T04:54:42.898Z,2.23
2018-09-26T04:57:11.298Z,2.10
2018-09-26T04:59:39.671Z,2.20
2018-09-26T05:02:08.073Z,1.93
2018-09-26T05:04:36.439Z,2.30
2018-09-26T05:07:04.834Z,2.40
2018-09-26T05:09:33.210Z,1.93
2018-09-26T05:12:01.930Z,1.83
2018-09-26T05:14:30.298Z,1.83
2018-09-26T05:16:59.626Z,2.07
2018-09-26T05:19:28.054Z,2.40
2018-09-26T05:21:56.522Z,2.30
2018-09-26T05:24:24.934Z,2.50
2018-09-26T05:26:53.382Z,1.80
2018-09-26T05:29:21.778Z,2.30
2018-09-26T05:31:50.681Z,2.60
2018-09-26T05:34:19.078Z,2.40
2018-09-26T05:36:47.850Z,1.77
2018-09-26T05:39:16.241Z,3.10
2018-09-26T05:41:44.695Z,2.27
2018-09-26T05:44:13.041Z,2.10
2018-09-26T05:46:41.409Z,3.00
2018-09-26T05:49:09.838Z,2.13
2018-09-26T05:51:38.204Z,2.13
2018-09-26T05:54:06.673Z,2.00
2018-09-26T05:56:35.049Z,1.70
2018-09-26T05:59:03.442Z,2.17
2018-09-26T06:01:31.821Z,2.33
2018-09-26T06:04:00.225Z,2.50
2018-09-26T06:06:28.597Z,2.33
2018-09-26T06:08:56.993Z,2.30
2018-09-26T06:11:25.359Z,2.23
2018-09-26T06:13:53.770Z,2.27
2018-09-26T06:16:22.154Z,2.17
2018-09-26T06:18:50.589Z,2.77
2018-09-26T06:21:18.967Z,2.40
2018-09-26T06:23:47.357Z,2.30
2018-09-26T06:26:15.750Z,2.17
2018-09-26T06:28:44.142Z,1.90
2018-09-26T06:31:12.509Z,2.00
2018-09-26T06:33:40.917Z,2.13
2018-09-26T06:36:09.289Z,2.00
2018-09-26T06:38:37.683Z,2.10
2018-09-26T06:41:06.078Z,1.73
2018-09-26T06:43:34.466Z,2.00
2018-09-26T06:46:02.834Z,2.20
2018-09-26T06:48:31.233Z,2.20
2018-09-26T06:50:59.618Z,2.00
2018-09-26T06:53:28.039Z,2.80
2018-09-26T06:55:56.409Z,2.40
2018-09-26T06:58:24.818Z,1.73
2018-09-26T07:00:53.190Z,1.80
2018-09-26T07:03:21.583Z,1.70
2018-09-26T07:05:49.954Z,2.50
2018-09-26T07:08:18.338Z,1.90
2018-09-26T07:10:46.782Z,1.73
2018-09-26T07:13:15.162Z,1.73
2018-09-26T07:15:43.570Z,2.30
2018-09-26T07:18:11.938Z,1.80
2018-09-26T07:20:40.325Z,1.70
2018-09-26T07:23:08.714Z,1.73
2018-09-26T07:25:37.105Z,1.70
2018-09-26T07:28:05.497Z,1.70
2018-09-26T07:30:33.886Z,1.83
2018-09-26T07:33:02.283Z,2.87
2018-09-26T07:35:30.686Z,1.70
2018-09-26T07:37:59.054Z,1.20
2018-09-26T07:40:27.450Z,1.57
2018-09-26T07:42:55.822Z,2.00
2018-09-26T07:45:24.230Z,1.50
2018-09-26T07:47:52.617Z,1.40
2018-09-26T07:50:21.011Z,1.53
2018-09-26T07:52:49.379Z,1.90
2018-09-26T07:55:17.782Z,1.63
2018-09-26T07:57:46.158Z,1.70
2018-09-26T08:00:14.558Z,1.83
2018-09-26T08:02:42.930Z,1.80
2018-09-26T08:05:11.327Z,1.67
2018-09-26T08:07:39.792Z,1.83
2018-09-26T08:10:08.161Z,1.70
2018-09-26T08:12:36.545Z,1.30
2018-09-26T08:15:05.307Z,1.37
2018-09-26T08:17:33.707Z,1.33
2018-09-26T08:20:02.078Z,1.73
2018-09-26T08:22:30.481Z,1.70
2018-09-26T08:24:58.862Z,1.73
2018-09-26T08:27:27.318Z,1.83
2018-09-26T08:29:55.792Z,2.27
2018-09-26T08:32:24.122Z,1.27
2018-09-26T08:34:52.491Z,1.57
2018-09-26T08:37:20.887Z,1.10
2018-09-26T08:39:49.255Z,1.50
2018-09-26T08:42:17.646Z,1.60
2018-09-26T08:44:46.018Z,1.50
2018-09-26T08:47:14.401Z,1.90
2018-09-26T08:49:42.773Z,2.03
2018-09-26T08:52:11.165Z,2.30
2018-09-26T08:54:41.209Z,1.93
2018-09-26T08:57:09.601Z,1.97
2018-09-26T08:59:38.016Z,1.47
2018-09-26T09:02:06.486Z,1.73
2018-09-26T09:04:34.863Z,1.67
2018-09-26T09:07:03.262Z,1.97
2018-09-26T09:09:31.638Z,2.13
2018-09-26T09:12:00.039Z,1.43
2018-09-26T09:14:28.499Z,1.63
2018-09-26T09:16:56.834Z,1.93
2018-09-26T09:19:25.221Z,2.10
2018-09-26T09:21:53.631Z,1.30
2018-09-26T09:24:22.001Z,1.70
2018-09-26T09:26:50.398Z,1.43
2018-09-26T09:29:18.802Z,1.33
2018-09-26T09:31:47.174Z,1.43
2018-09-26T09:34:15.571Z,1.40
2018-09-26T09:36:43.956Z,1.60
2018-09-26T09:39:12.358Z,1.60
2018-09-26T09:41:40.730Z,0.90
2018-09-26T09:44:09.155Z,1.20
2018-09-26T09:46:37.522Z,1.10
2018-09-26T09:49:06.341Z,1.17
2018-09-26T09:51:34.744Z,1.10
2018-09-26T09:54:03.131Z,1.27
2018-09-26T09:56:31.512Z,1.33
2018-09-26T09:59:00.066Z,1.17
2018-09-26T10:01:29.406Z,1.00
2018-09-26T10:04:00.102Z,1.30
2018-09-26T10:06:29.225Z,1.20
2018-09-26T10:08:58.022Z,1.30
2018-09-26T10:11:26.582Z,1.47
2018-09-26T10:13:54.978Z,1.10
2018-09-26T10:16:23.346Z,1.30
2018-09-26T10:18:51.763Z,1.30
2018-09-26T10:21:20.150Z,0.90
2018-09-26T10:23:48.550Z,1.40
2018-09-26T10:26:17.003Z,1.37
2018-09-26T10:28:45.366Z,1.50
2018-09-26T10:31:13.769Z,1.30
2018-09-26T10:33:42.178Z,2.30
2018-09-26T10:36:10.550Z,0.90
2018-09-26T10:38:38.949Z,1.50
2018-09-26T10:41:07.323Z,1.13
2018-09-26T10:43:35.718Z,1.57
2018-09-26T10:46:04.099Z,1.40
2018-09-26T10:48:32.506Z,1.10
2018-09-26T10:51:00.951Z,2.17
2018-09-26T10:53:29.342Z,1.30
2018-09-26T10:55:57.718Z,1.57
2018-09-26T10:58:26.106Z,1.40
2018-09-26T11:00:54.473Z,1.70
2018-09-26T11:03:22.882Z,1.23
2018-09-26T11:05:51.258Z,1.20
2018-09-26T11:08:19.704Z,1.97
2018-09-26T11:10:48.074Z,1.30
2018-09-26T11:13:16.454Z,1.33
2018-09-26T11:15:44.849Z,1.23
2018-09-26T11:18:13.221Z,2.03
2018-09-26T11:20:41.618Z,1.90
2018-09-26T11:23:09.994Z,1.70
2018-09-26T11:25:38.399Z,1.30
2018-09-26T11:28:06.836Z,1.30
2018-09-26T11:30:35.223Z,1.50
2018-09-26T11:33:03.593Z,1.40
2018-09-26T11:35:31.994Z,2.17
2018-09-26T11:38:00.370Z,1.77
2018-09-26T11:40:28.768Z,2.07
2018-09-26T11:42:57.143Z,2.40
2018-09-26T11:45:25.653Z,1.60
2018-09-26T11:47:54.033Z,1.40
2018-09-26T11:50:22.448Z,1.33
2018-09-26T11:52:50.836Z,1.50
2018-09-26T11:55:19.233Z,1.30
2018-09-26T11:57:47.711Z,1.47
2018-09-26T12:00:16.098Z,1.87
2018-09-26T12:02:44.555Z,1.43
2018-09-26T12:05:12.953Z,1.17
2018-09-26T12:07:41.332Z,1.60
2018-09-26T12:10:09.856Z,1.17
2018-09-26T12:12:38.218Z,1.60
2018-09-26T12:15:06.663Z,1.73
2018-09-26T12:17:35.039Z,2.20
2018-09-26T12:20:03.436Z,1.30
2018-09-26T12:22:31.890Z,1.20
2018-09-26T12:25:00.294Z,2.10
2018-09-26T12:27:28.686Z,1.20
2018-09-26T12:29:57.082Z,1.37
2018-09-26T12:32:25.465Z,1.57
2018-09-26T12:34:53.888Z,1.23
2018-09-26T12:37:22.254Z,1.23
2018-09-26T12:39:50.654Z,1.03
2018-09-26T12:42:19.091Z,1.70
2018-09-26T12:44:47.459Z,1.17
2018-09-26T12:47:15.871Z,1.13
2018-09-26T12:49:44.295Z,2.13
2018-09-26T12:52:12.709Z,1.50
2018-09-26T12:54:41.081Z,1.27
2018-09-26T12:57:09.451Z,1.97
2018-09-26T12:59:37.849Z,1.30
2018-09-26T13:02:06.232Z,1.60
2018-09-26T13:04:34.610Z,2.40
2018-09-26T13:07:03.006Z,1.40
2018-09-26T13:09:31.378Z,2.00
2018-09-26T13:11:59.775Z,1.10
2018-09-26T13:14:28.171Z,1.70
2018-09-26T13:16:56.564Z,1.70
2018-09-26T13:19:25.095Z,1.30
2018-09-26T13:21:53.490Z,1.23
2018-09-26T13:24:22.022Z,1.40
2018-09-26T13:26:50.366Z,1.70
2018-09-26T13:29:18.738Z,1.30
2018-09-26T13:31:47.159Z,1.30
2018-09-26T13:34:15.554Z,1.10
2018-09-26T13:36:43.968Z,1.37
2018-09-26T13:39:12.455Z,1.30
2018-09-26T13:41:40.791Z,1.47
2018-09-26T13:44:09.182Z,1.27
2018-09-26T13:46:37.704Z,1.50
2018-09-26T13:49:06.162Z,1.40
2018-09-26T13:51:34.567Z,1.40
2018-09-26T13:54:02.965Z,1.47
2018-09-26T13:56:31.369Z,1.37
2018-09-26T13:58:59.750Z,1.17
2018-09-26T14:01:28.273Z,1.00
2018-09-26T14:03:56.623Z,1.63
2018-09-26T14:06:25.026Z,5.70
2018-09-26T14:08:53.435Z,1.43
2018-09-26T14:11:21.843Z,2.13
2018-09-26T14:13:50.224Z,1.60
2018-09-26T14:16:18.662Z,1.40
2018-09-26T14:18:47.042Z,1.00
2018-09-26T14:21:33.294Z,1.80
2018-09-26T14:24:02.110Z,1.30
2018-09-26T14:26:31.226Z,1.70
2018-09-26T14:29:00.251Z,1.83
2018-09-26T14:31:29.267Z,1.47
2018-09-26T14:33:58.958Z,1.67
2018-09-26T14:36:28.278Z,1.17
2018-09-26T14:38:58.064Z,1.10
2018-09-26T14:41:27.182Z,1.00
2018-09-26T14:43:56.262Z,1.40
2018-09-26T14:46:25.334Z,2.07
2018-09-26T14:48:54.346Z,1.60
2018-09-26T14:51:23.414Z,1.67
2018-09-26T14:53:52.494Z,1.80
2018-09-26T14:56:21.772Z,1.23
2018-09-26T14:58:50.938Z,1.20
2018-09-26T15:01:20.010Z,1.20
2018-09-26T15:03:49.082Z,1.43
2018-09-26T15:06:18.262Z,1.67
2018-09-26T15:08:47.365Z,1.20
2018-09-26T15:11:16.410Z,1.80
2018-09-26T15:13:45.366Z,1.60
2018-09-26T15:16:14.431Z,1.70
2018-09-26T15:18:43.478Z,1.67
2018-09-26T15:21:12.552Z,1.10
2018-09-26T15:23:41.570Z,1.47
2018-09-26T15:26:11.286Z,1.23
2018-09-26T15:28:41.621Z,1.80
2018-09-26T15:31:10.422Z,1.57
2018-09-26T15:33:39.897Z,1.93
2018-09-26T15:36:08.829Z,1.43
2018-09-26T15:38:38.198Z,1.43
2018-09-26T15:41:07.374Z,1.20
2018-09-26T15:43:36.182Z,1.87
2018-09-26T15:46:05.105Z,1.80
2018-09-26T15:48:34.046Z,1.60
2018-09-26T15:51:02.937Z,3.17
2018-09-26T15:53:32.138Z,1.50
2018-09-26T15:56:01.028Z,1.23
2018-09-26T15:58:30.433Z,1.40
2018-09-26T16:00:59.232Z,2.07
2018-09-26T16:03:27.786Z,2.30
2018-09-26T16:05:56.170Z,2.10
2018-09-26T16:08:24.575Z,1.90
2018-09-26T16:10:52.966Z,1.50
2018-09-26T16:13:21.368Z,1.60
2018-09-26T16:15:49.745Z,1.40
2018-09-26T16:18:18.256Z,1.97
2018-09-26T16:20:46.642Z,1.67
2018-09-26T16:23:15.038Z,1.37
2018-09-26T16:25:43.554Z,1.63
2018-09-26T16:28:11.945Z,1.87
2018-09-26T16:30:40.322Z,2.00
2018-09-26T16:33:08.724Z,1.90
2018-09-26T16:35:37.218Z,1.80
2018-09-26T16:38:05.889Z,1.30
2018-09-26T16:40:34.287Z,1.53
2018-09-26T16:43:02.682Z,1.30
2018-09-26T16:45:31.110Z,1.37
2018-09-26T16:47:59.502Z,1.37
2018-09-26T16:50:27.962Z,1.60
2018-09-26T16:52:56.311Z,1.83
2018-09-26T16:55:24.694Z,1.57
2018-09-26T16:57:53.094Z,1.57
2018-09-26T17:00:21.556Z,1.60
2018-09-26T17:02:49.952Z,2.20
2018-09-26T17:05:18.318Z,1.13
2018-09-26T17:07:46.710Z,1.27
2018-09-26T17:10:15.230Z,0.97
2018-09-26T17:12:43.825Z,1.40
2018-09-26T17:15:12.230Z,1.27
2018-09-26T17:17:40.625Z,1.57
2018-09-26T17:20:09.184Z,1.93
2018-09-26T17:22:37.565Z,1.47
2018-09-26T17:25:05.971Z,1.40
2018-09-26T17:27:34.371Z,1.60
2018-09-26T17:30:02.770Z,1.67
2018-09-26T17:32:31.178Z,1.70
2018-09-26T17:34:59.610Z,1.80
2018-09-26T17:37:27.987Z,1.50
2018-09-26T17:39:56.409Z,1.20
2018-09-26T17:42:26.147Z,1.80
2018-09-26T17:44:54.782Z,1.67
2018-09-26T17:47:23.154Z,1.97
2018-09-26T17:49:51.674Z,2.90
2018-09-26T17:52:20.190Z,2.07
2018-09-26T17:54:48.744Z,1.93
2018-09-26T17:57:17.078Z,1.33
2018-09-26T17:59:45.508Z,2.13
2018-09-26T18:02:13.889Z,1.37
2018-09-26T18:04:42.285Z,2.50
2018-09-26T18:07:10.700Z,1.57
2018-09-26T18:09:39.101Z,3.80
2018-09-26T18:12:07.753Z,2.30
2018-09-26T18:14:36.149Z,2.60
2018-09-26T18:17:04.541Z,1.87
2018-09-26T18:19:32.954Z,2.47
2018-09-26T18:22:01.407Z,2.87
2018-09-26T18:24:29.817Z,3.03
2018-09-26T18:26:58.215Z,2.50
2018-09-26T18:29:26.710Z,3.70
2018-09-26T18:31:55.095Z,1.90
2018-09-26T18:34:23.518Z,3.33
2018-09-26T18:36:51.910Z,1.90
2018-09-26T18:39:20.337Z,2.10
2018-09-26T18:41:49.314Z,2.07
2018-09-26T18:44:17.715Z,2.83
2018-09-26T18:46:46.082Z,2.60
2018-09-26T18:49:14.523Z,2.77
2018-09-26T18:51:42.906Z,2.30
2018-09-26T18:54:11.603Z,2.60
2018-09-26T18:56:40.082Z,2.20
2018-09-26T18:59:08.743Z,3.00
2018-09-26T19:01:37.120Z,2.53
2018-09-26T19:04:05.523Z,2.53
2018-09-26T19:06:35.075Z,3.33
2018-09-26T19:09:05.117Z,2.20
2018-09-26T19:11:33.526Z,2.10
2018-09-26T19:14:01.923Z,2.60
2018-09-26T19:16:30.310Z,3.27
2018-09-26T19:18:58.802Z,3.07
2018-09-26T19:21:27.234Z,3.30
2018-09-26T19:23:55.587Z,2.90
2018-09-26T19:26:24.012Z,2.80
2018-09-26T19:28:52.389Z,2.77
2018-09-26T19:31:20.865Z,2.17
2018-09-26T19:33:49.230Z,3.00
2018-09-26T19:36:17.705Z,2.90
2018-09-26T19:38:46.046Z,2.70
2018-09-26T19:41:14.430Z,2.97
2018-09-26T19:43:42.817Z,3.00
2018-09-26T19:46:11.214Z,3.30
2018-09-26T19:48:39.578Z,3.10
2018-09-26T19:51:08.069Z,2.73
2018-09-26T19:53:36.912Z,2.87
2018-09-26T19:56:05.366Z,2.97
2018-09-26T19:58:33.714Z,4.30
2018-09-26T20:01:02.241Z,2.63
2018-09-26T20:03:30.651Z,2.57
2018-09-26T20:05:59.038Z,3.30
2018-09-26T20:08:27.584Z,3.40
2018-09-26T20:10:56.002Z,3.50
2018-09-26T20:13:24.382Z,3.70
2018-09-26T20:15:52.786Z,3.57
2018-09-26T20:18:21.162Z,3.90
2018-09-26T20:20:49.558Z,3.80
2018-09-26T20:23:18.136Z,3.87
2018-09-26T20:25:46.694Z,3.60
2018-09-26T20:28:15.087Z,4.30
2018-09-26T20:30:43.486Z,3.70
2018-09-26T20:33:11.962Z,4.10
2018-09-26T20:35:40.286Z,3.93
2018-09-26T20:38:08.658Z,4.57
2018-09-26T20:40:37.053Z,4.70
2018-09-26T20:43:05.426Z,4.00
2018-09-26T20:45:33.908Z,3.97
2018-09-26T20:48:02.226Z,4.63
2018-09-26T20:50:30.617Z,4.03
2018-09-26T20:52:58.986Z,4.43
2018-09-26T20:55:27.382Z,4.03
2018-09-26T20:57:55.766Z,4.80
2018-09-26T21:00:24.219Z,3.83
2018-09-26T21:02:52.574Z,4.50
2018-09-26T21:05:21.029Z,4.40
2018-09-26T21:07:49.406Z,5.50
2018-09-26T21:10:17.817Z,4.80
2018-09-26T21:12:46.198Z,4.70
2018-09-26T21:15:15.102Z,5.07
2018-09-26T21:17:43.556Z,4.33
2018-09-26T21:20:11.894Z,4.90
2018-09-26T21:22:40.294Z,4.77
2018-09-26T21:25:08.678Z,5.00
2018-09-26T21:27:37.098Z,5.10
2018-09-26T21:30:05.546Z,5.13
2018-09-26T21:32:33.950Z,6.33
2018-09-26T21:35:02.331Z,5.90
2018-09-26T21:37:30.734Z,5.10
2018-09-26T21:39:59.110Z,5.70
2018-09-26T21:42:27.510Z,5.30
2018-09-26T21:44:55.897Z,6.27
2018-09-26T21:47:24.282Z,5.40
2018-09-26T21:49:52.658Z,5.80
2018-09-26T21:52:21.063Z,6.03
2018-09-26T21:54:49.442Z,5.60
2018-09-26T21:57:17.842Z,6.40
2018-09-26T21:59:46.220Z,5.30
2018-09-26T22:02:14.620Z,6.00
2018-09-26T22:04:42.995Z,6.20
2018-09-26T22:07:11.397Z,6.50
2018-09-26T22:09:39.774Z,5.63
2018-09-26T22:12:08.175Z,6.13
2018-09-26T22:14:36.559Z,6.30
2018-09-26T22:17:04.961Z,5.40
2018-09-26T22:19:33.331Z,5.80
2018-09-26T22:22:01.727Z,7.17
2018-09-26T22:24:30.098Z,6.40
2018-09-26T22:26:58.519Z,5.83
2018-09-26T22:29:26.890Z,6.33
2018-09-26T22:31:55.473Z,6.10
2018-09-26T22:34:24.039Z,5.80
2018-09-26T22:36:52.439Z,6.03
2018-09-26T22:39:20.818Z,6.70
2018-09-26T22:41:49.216Z,7.23
2018-09-26T22:44:17.586Z,5.40
2018-09-26T22:46:46.002Z,6.80
2018-09-26T22:49:14.382Z,7.07
2018-09-26T22:51:42.790Z,6.63
2018-09-26T22:54:11.173Z,6.97
2018-09-26T22:56:41.013Z,6.30
2018-09-26T22:59:09.430Z,7.00
2018-09-26T23:01:37.833Z,8.37
2018-09-26T23:04:06.204Z,6.57
2018-09-26T23:06:34.618Z,6.70
2018-09-26T23:09:03.021Z,6.23
2018-09-26T23:11:31.419Z,6.80
2018-09-26T23:13:59.798Z,6.90
2018-09-26T23:16:28.193Z,7.30
2018-09-26T23:18:56.598Z,6.57
2018-09-26T23:21:24.967Z,7.53
2018-09-26T23:23:53.358Z,7.03
2018-09-26T23:26:21.758Z,7.30
2018-09-26T23:28:50.151Z,8.40
2018-09-26T23:31:18.530Z,7.00
2018-09-26T23:33:46.928Z,8.27
2018-09-26T23:36:15.310Z,8.67
2018-09-26T23:38:43.702Z,8.43
2018-09-26T23:41:12.071Z,9.10
2018-09-26T23:43:40.461Z,8.77
2018-09-26T23:46:08.838Z,9.03
2018-09-26T23:48:37.390Z,8.50
2018-09-26T23:51:05.758Z,8.63
2018-09-26T23:53:34.365Z,8.83
2018-09-26T23:56:02.769Z,8.57
2018-09-26T23:58:31.165Z,9.33
